Hanaford, Illinois
Current Conditions -  °F | °C
As of 10:53 AM on Thursday 27 Nov 2014 (Local Time) from KMWA Reporting Station
Haze Haze  
Wind Chill: 21°   Ceiling: 1900
Heat Index: 30°   Visibility: 5mi
Dew Point: 27°   Wind: 12mph
Humidity: 86%   Direction: 340°NNW
Pressure: 30.49"   Gusts: NA
Location:  37.9555°N, 88.8403°W
Report Text: KMWA 271653Z 34010KT 5SM HZ SCT014 OVC019 M01/M03 A3049
Loading
Personal Weather Stations






























Interactive Weather Map New forecast layout! Learn more

10-Day Weather Forecast

Advertisements
Track Severe Weather on mobile